Time;durP1;ratioP1;P1;durP2;ratioP2;P2;SDS_P1;SDS_P2;PMS_P1;PMS_P2;Temp;Humidity;BMP_temperature;BMP_pressure;BME280_temperature;BME280_humidity;BME280_pressure;Samples;Min_cycle;Max_cycle;Signal;HPM_P1;HPM_P2
2022/06/25 00:01:09;;;;;;;;;;;;;;;19.25;65.66;94798.97;5067871;22;19927;-77
2022/06/25 00:03:35;;;;;;;;;;;;;;;19.25;65.31;94798.19;5070111;22;19925;-76
2022/06/25 00:06:00;;;;;;;;;;;;;;;19.18;65.48;94783.50;5048912;22;20392;-76
2022/06/25 00:08:25;;;;;;;;;;;;;;;19.17;65.54;94789.84;5028192;28;20035;-76
2022/06/25 00:13:26;;;;;;;;;;;;;;;19.14;65.39;94782.53;5045084;22;19990;-75
2022/06/25 00:15:51;;;;;;;;;;;;;;;19.14;65.57;94776.47;5039505;28;19924;-75
2022/06/25 00:18:16;;;;;;;;;;;;;;;19.14;65.57;94771.19;5017833;28;19939;-74
2022/06/25 00:20:42;;;;;;;;;;;;;;;19.12;65.66;94768.84;5020205;28;20385;-77
2022/06/25 00:23:07;;;;;;;;;;;;;;;19.07;65.70;94776.06;5019664;28;19945;-77
2022/06/25 00:25:33;;;;;;;;;;;;;;;19.00;65.87;94783.50;5019957;28;19917;-77
2022/06/25 00:27:58;;;;;;;;;;;;;;;19.00;65.45;94780.88;5020441;28;19924;-77
2022/06/25 00:30:23;;;;;;;;;;;;;;;18.96;65.83;94779.88;5020819;28;20365;-77
2022/06/25 00:32:49;;;;;;;;;;;;;;;18.93;65.76;94791.00;5044708;22;20014;-77
2022/06/25 00:35:14;;;;;;;;;;;;;;;18.89;65.74;94780.25;5028711;28;19917;-77
2022/06/25 00:37:39;;;;;;;;;;;;;;;18.80;66.21;94777.47;5033602;22;20308;-76
2022/06/25 00:40:05;;;;;;;;;;;;;;;18.78;66.35;94784.09;5029736;28;19921;-76
2022/06/25 00:42:30;;;;;;;;;;;;;;;18.76;66.83;94770.41;5029472;28;20392;-76
2022/06/25 00:44:55;;;;;;;;;;;;;;;18.73;66.97;94766.50;5029088;28;19975;-76
2022/06/25 00:47:21;;;;;;;;;;;;;;;18.73;66.71;94766.50;5029495;28;19917;-76
2022/06/25 00:49:46;;;;;;;;;;;;;;;18.72;66.53;94764.16;5012151;28;20395;-77
2022/06/25 00:52:12;;;;;;;;;;;;;;;18.69;66.35;94767.31;4995355;28;19924;-77
2022/06/25 00:54:38;;;;;;;;;;;;;;;18.64;66.58;94773.44;5011250;28;20410;-77
2022/06/25 00:57:07;;;;;;;;;;;;;;;18.63;66.81;94773.72;5011779;28;19924;-77
2022/06/25 00:59:35;;;;;;;;;;;;;;;18.58;66.73;94775.34;5030285;28;19920;-77
2022/06/25 01:02:00;;;;;;;;;;;;;;;18.56;67.05;94774.84;5012718;28;19928;-77
2022/06/25 01:04:25;;;;;;;;;;;;;;;18.55;66.87;94765.38;5011954;28;19917;-76
2022/06/25 01:06:53;;;;;;;;;;;;;;;18.51;67.27;94769.63;5029490;28;19923;-77
2022/06/25 01:09:18;;;;;;;;;;;;;;;18.52;67.35;94770.41;5027825;28;19951;-77
2022/06/25 01:11:44;;;;;;;;;;;;;;;18.46;67.76;94780.22;5028249;28;19936;-77
2022/06/25 01:14:09;;;;;;;;;;;;;;;18.51;67.92;94774.09;5026400;28;20383;-77
2022/06/25 01:16:34;;;;;;;;;;;;;;;18.56;67.66;94777.47;5029053;28;19928;-77
2022/06/25 01:19:04;;;;;;;;;;;;;;;18.64;67.22;94773.44;5029378;28;20868;-77
2022/06/25 01:21:35;;;;;;;;;;;;;;;18.66;67.37;94773.94;5029230;28;19917;-77
2022/06/25 01:24:01;;;;;;;;;;;;;;;18.69;66.71;94775.22;5044977;22;19932;-77
2022/06/25 01:26:26;;;;;;;;;;;;;;;18.68;67.21;94773.66;5032600;28;20379;-77
2022/06/25 01:28:52;;;;;;;;;;;;;;;18.76;67.11;94779.09;5032705;28;19932;-77
2022/06/25 01:31:17;;;;;;;;;;;;;;;18.75;66.24;94776.75;5032565;28;20465;-77
2022/06/25 01:33:42;;;;;;;;;;;;;;;18.70;65.88;94769.69;4996695;28;19924;-77
2022/06/25 01:36:07;;;;;;;;;;;;;;;18.68;66.31;94778.94;5040814;22;20364;-76
2022/06/25 01:38:33;;;;;;;;;;;;;;;18.63;66.69;94777.16;5068379;22;19920;-76
2022/06/25 01:40:58;;;;;;;;;;;;;;;18.67;66.86;94777.38;5051341;28;19924;-76
2022/06/25 01:43:23;;;;;;;;;;;;;;;18.70;66.69;94779.44;5049470;28;20043;-76
2022/06/25 01:45:48;;;;;;;;;;;;;;;18.71;66.75;94783.63;5042332;28;20331;-76
2022/06/25 01:48:17;;;;;;;;;;;;;;;18.71;66.88;94786.25;5023974;28;19916;-77
2022/06/25 01:50:42;;;;;;;;;;;;;;;18.74;66.30;94777.81;5041835;28;19920;-76
2022/06/25 01:53:08;;;;;;;;;;;;;;;18.74;65.85;94775.19;5283057;22;19927;-77
2022/06/25 01:55:33;;;;;;;;;;;;;;;18.76;65.42;94786.22;5052121;28;19921;-77
2022/06/25 01:57:58;;;;;;;;;;;;;;;18.76;65.39;94788.84;5035122;28;19923;-77
2022/06/25 02:00:24;;;;;;;;;;;;;;;18.74;65.12;94786.50;5032483;28;19961;-76
2022/06/25 02:02:50;;;;;;;;;;;;;;;18.71;65.38;94789.72;5014011;28;19940;-77
2022/06/25 02:05:15;;;;;;;;;;;;;;;18.77;65.67;94793.06;4998006;28;20845;-77
2022/06/25 02:07:41;;;;;;;;;;;;;;;18.83;66.25;94802.44;5029772;28;19995;-77
2022/06/25 02:10:06;;;;;;;;;;;;;;;18.85;66.27;94806.38;5032099;28;19920;-77
2022/06/25 02:12:32;;;;;;;;;;;;;;;18.88;65.77;94810.31;5030750;28;19960;-77
2022/06/25 02:14:57;;;;;;;;;;;;;;;18.91;65.74;94801.81;5042480;22;20380;-77
2022/06/25 02:17:22;;;;;;;;;;;;;;;18.86;66.25;94793.97;5039698;28;19928;-77
2022/06/25 02:22:14;;;;;;;;;;;;;;;18.98;66.06;94794.34;5074689;22;19921;-77
2022/06/25 02:24:42;;;;;;;;;;;;;;;19.00;65.76;94801.97;5031498;28;19917;-76
2022/06/25 02:27:08;;;;;;;;;;;;;;;19.00;65.06;94800.09;5030363;28;19921;-77
2022/06/25 02:29:33;;;;;;;;;;;;;;;19.01;65.13;94796.41;5031985;28;20547;-76
2022/06/25 02:31:59;;;;;;;;;;;;;;;19.03;65.18;94796.91;5031693;28;19923;-76
2022/06/25 02:34:24;;;;;;;;;;;;;;;19.06;65.61;94806.13;5012560;28;19917;-77
2022/06/25 02:36:50;;;;;;;;;;;;;;;19.11;65.89;94819.22;5031252;28;20008;-77
2022/06/25 02:39:16;;;;;;;;;;;;;;;19.11;64.98;94822.63;4997643;28;19928;-76
2022/06/25 02:41:45;;;;;;;;;;;;;;;19.13;64.51;94820.50;5014023;28;19921;-77
2022/06/25 02:44:10;;;;;;;;;;;;;;;19.16;64.77;94822.56;5031686;28;19968;-76
2022/06/25 02:46:35;;;;;;;;;;;;;;;19.18;65.25;94809.88;5031904;28;20034;-81
2022/06/25 02:49:05;;;;;;;;;;;;;;;19.19;65.65;94806.16;5031768;28;19928;-77
2022/06/25 02:51:30;;;;;;;;;;;;;;;19.27;65.82;94806.59;5030968;28;19928;-77
2022/06/25 02:53:55;;;;;;;;;;;;;;;19.30;65.01;94821.84;5031537;28;19917;-76
2022/06/25 02:59:05;;;;;;;;;;;;;;;19.34;65.24;94801.75;5031469;28;20019;-76
2022/06/25 03:01:32;;;;;;;;;;;;;;;19.37;64.60;94793.28;4997609;28;20016;-77
2022/06/25 03:03:57;;;;;;;;;;;;;;;19.41;64.70;94802.19;5030743;28;19924;-77
2022/06/25 03:06:23;;;;;;;;;;;;;;;19.46;64.89;94810.00;5030826;28;19924;-81
2022/06/25 03:08:48;;;;;;;;;;;;;;;19.54;64.50;94809.41;5033395;28;19956;-76
2022/06/25 03:11:13;;;;;;;;;;;;;;;19.55;64.82;94805.69;5013902;28;19917;-76
2022/06/25 03:13:39;;;;;;;;;;;;;;;19.62;64.58;94819.28;5013669;28;20392;-76
2022/06/25 03:16:04;;;;;;;;;;;;;;;19.68;64.59;94818.09;5013408;28;19917;-79
2022/06/25 03:18:30;;;;;;;;;;;;;;;19.77;63.70;94819.03;4996810;28;19990;-76
2022/06/25 03:20:55;;;;;;;;;;;;;;;19.76;63.38;94824.59;5012848;28;19917;-75
2022/06/25 03:23:20;;;;;;;;;;;;;;;19.79;63.08;94819.53;5030882;28;20388;-77
2022/06/25 03:25:46;;;;;;;;;;;;;;;19.89;62.33;94804.59;5013437;28;19940;-75
2022/06/25 03:28:15;;;;;;;;;;;;;;;20.05;62.04;94816.47;5014161;28;19921;-76
2022/06/25 03:30:41;;;;;;;;;;;;;;;20.20;62.23;94813.56;4995659;28;20289;-79
2022/06/25 03:33:31;;;;;;;;;;;;;;;20.36;62.46;94814.06;5029056;28;19924;-78
2022/06/25 03:36:07;;;;;;;;;;;;;;;;;;;;;
2022/06/25 03:38:33;;;;;;;;;;;;;;;20.65;60.67;94813.78;5031111;28;19928;-77
2022/06/25 03:43:42;;;;;;;;;;;;;;;20.81;60.54;94812.38;5031003;28;19971;-77
2022/06/25 03:46:07;;;;;;;;;;;;;;;20.85;61.30;94797.53;5030541;28;19917;-77
2022/06/25 03:48:33;;;;;;;;;;;;;;;20.86;61.39;94799.09;5013975;28;19932;-77
2022/06/25 03:50:58;;;;;;;;;;;;;;;20.86;61.55;94804.38;5012404;28;19916;-77
2022/06/25 03:53:23;;;;;;;;;;;;;;;20.89;61.31;94805.63;5030706;28;20007;-77
2022/06/25 03:55:48;;;;;;;;;;;;;;;20.88;61.13;94786.34;5030641;28;19917;-76
2022/06/25 03:58:14;;;;;;;;;;;;;;;20.88;60.61;94781.06;5012897;28;19927;-77
2022/06/25 04:00:39;;;;;;;;;;;;;;;20.85;60.88;94786.97;5030536;28;19943;-77
2022/06/25 04:03:04;;;;;;;;;;;;;;;20.79;60.47;94788.13;5031886;28;19924;-77
2022/06/25 04:05:30;;;;;;;;;;;;;;;20.85;60.53;94792.25;5030223;28;19924;-77
2022/06/25 04:07:55;;;;;;;;;;;;;;;20.91;61.15;94790.25;5028960;28;19917;-77
2022/06/25 04:10:20;;;;;;;;;;;;;;;21.01;61.29;94810.44;5012674;28;19924;-77
2022/06/25 04:12:45;;;;;;;;;;;;;;;21.08;60.80;94816.06;5030486;28;19956;-77
2022/06/25 04:15:11;;;;;;;;;;;;;;;21.16;61.00;94818.03;5012927;28;19924;-77
2022/06/25 04:17:36;;;;;;;;;;;;;;;21.22;60.62;94816.84;4996134;28;19917;-77
2022/06/25 04:20:02;;;;;;;;;;;;;;;21.30;60.29;94812.72;5030194;28;19932;-77
2022/06/25 04:22:27;;;;;;;;;;;;;;;21.34;60.10;94814.47;4994919;28;19924;-77
2022/06/25 04:24:52;;;;;;;;;;;;;;;21.40;59.92;94821.22;5010856;28;19991;-77
2022/06/25 04:30:01;;;;;;;;;;;;;;;21.56;58.98;94811.84;5040362;28;20445;-77
2022/06/25 04:32:27;;;;;;;;;;;;;;;21.65;59.28;94819.84;5040038;28;19921;-77
2022/06/25 04:34:52;;;;;;;;;;;;;;;21.77;59.00;94814.78;5035748;28;19921;-77
2022/06/25 04:37:18;;;;;;;;;;;;;;;21.84;58.11;94817.00;5154188;22;19921;-75
2022/06/25 04:39:43;;;;;;;;;;;;;;;21.87;57.70;94825.13;5039754;28;19924;-76
2022/06/25 04:42:09;;;;;;;;;;;;;;;21.88;57.04;94828.56;5034357;28;19917;-76
2022/06/25 04:44:34;;;;;;;;;;;;;;;21.94;57.16;94832.63;5029857;28;19916;-76
2022/06/25 04:46:59;;;;;;;;;;;;;;;22.12;57.07;94823.72;5024763;28;19931;-76
2022/06/25 04:49:24;;;;;;;;;;;;;;;22.42;56.64;94831.97;5029738;28;19921;-76
2022/06/25 04:51:50;;;;;;;;;;;;;;;23.05;54.77;94822.84;5087512;22;19986;-76
2022/06/25 04:54:15;;;;;;;;;;;;;;;24.89;49.42;94829.09;5049629;28;19924;-76
2022/06/25 04:59:21;;;;;;;;;;;;;;;26.40;44.80;94826.19;5122861;22;19991;-77
2022/06/25 05:01:46;;;;;;;;;;;;;;;26.52;44.84;94830.75;5039704;28;19920;-76
2022/06/25 05:04:12;;;;;;;;;;;;;;;26.54;44.84;94828.53;5043286;28;19939;-76
2022/06/25 05:06:37;;;;;;;;;;;;;;;26.39;45.07;94829.97;5042116;28;19921;-77
2022/06/25 05:11:31;;;;;;;;;;;;;;;26.68;44.73;94836.97;5082439;22;19964;-76
2022/06/25 05:13:56;;;;;;;;;;;;;;;28.22;41.19;94831.53;5033165;28;19955;-76
2022/06/25 05:16:21;;;;;;;;;;;;;;;29.91;37.84;94827.75;5033047;28;19925;-76
2022/06/25 05:18:48;;;;;;;;;;;;;;;31.43;34.92;94826.06;5033034;28;19998;-76
2022/06/25 05:21:13;;;;;;;;;;;;;;;32.29;33.43;94819.00;5030418;28;19916;-77
2022/06/25 05:23:38;;;;;;;;;;;;;;;34.01;30.60;94825.16;5015301;28;19928;-76
2022/06/25 05:26:04;;;;;;;;;;;;;;;34.90;27.88;94825.31;5015008;28;19917;-77
2022/06/25 05:28:29;;;;;;;;;;;;;;;34.84;27.70;94833.00;5030734;28;19921;-76
2022/06/25 05:30:54;;;;;;;;;;;;;;;35.31;26.86;94822.13;5031774;28;19971;-77
2022/06/25 05:33:45;;;;;;;;;;;;;;;34.38;28.00;94830.28;5032816;28;19921;-76
2022/06/25 05:36:11;;;;;;;;;;;;;;;32.08;31.55;94830.31;5047967;28;19924;-76
2022/06/25 05:38:36;;;;;;;;;;;;;;;33.75;29.70;94825.41;5042830;28;20387;-76
2022/06/25 05:41:07;;;;;;;;;;;;;;;35.67;26.58;94823.63;5056556;22;19960;-77
2022/06/25 05:43:33;;;;;;;;;;;;;;;36.85;24.59;94825.69;5011712;28;19990;-77
2022/06/25 05:45:58;;;;;;;;;;;;;;;38.09;23.30;94827.09;5021637;28;20381;-78
2022/06/25 05:48:23;;;;;;;;;;;;;;;39.09;21.97;94828.34;5025977;28;20350;-77
2022/06/25 05:50:49;;;;;;;;;;;;;;;40.35;20.25;94836.38;5024495;28;19924;-78
2022/06/25 05:53:14;;;;;;;;;;;;;;;41.68;19.62;94834.75;5022537;28;19961;-76
2022/06/25 05:55:39;;;;;;;;;;;;;;;42.72;17.91;94835.22;5022515;28;19920;-77
2022/06/25 05:58:04;;;;;;;;;;;;;;;43.71;17.25;94825.66;5023009;28;19924;-77
2022/06/25 06:00:30;;;;;;;;;;;;;;;44.55;16.37;94829.16;5013582;28;20007;-77
2022/06/25 06:02:55;;;;;;;;;;;;;;;45.20;15.56;94830.84;5055238;22;20354;-77
2022/06/25 06:05:20;;;;;;;;;;;;;;;45.91;15.16;94826.28;5041031;28;20380;-77
2022/06/25 06:07:45;;;;;;;;;;;;;;;45.93;14.70;94824.59;5042622;28;20004;-77
2022/06/25 06:10:11;;;;;;;;;;;;;;;46.39;14.07;94818.22;5041280;28;19921;-77
2022/06/25 06:12:36;;;;;;;;;;;;;;;46.52;14.45;94819.53;5032044;28;20363;-77
2022/06/25 06:15:01;;;;;;;;;;;;;;;46.90;14.08;94820.88;5032536;28;20000;-77
2022/06/25 06:17:27;;;;;;;;;;;;;;;46.88;14.01;94828.84;5048789;28;19940;-77
2022/06/25 06:19:55;;;;;;;;;;;;;;;47.46;13.41;94831.03;5030581;28;20350;-77
2022/06/25 06:22:21;;;;;;;;;;;;;;;47.88;13.38;94823.84;5040890;28;19979;-77
2022/06/25 06:24:46;;;;;;;;;;;;;;;48.04;13.06;94826.88;5041422;28;20402;-77
2022/06/25 06:27:11;;;;;;;;;;;;;;;48.28;12.37;94820.50;5042412;28;20272;-77
2022/06/25 06:29:36;;;;;;;;;;;;;;;48.41;12.94;94820.94;5040453;28;20024;-77
2022/06/25 06:32:02;;;;;;;;;;;;;;;48.35;12.82;94820.13;5041762;28;19977;-77
2022/06/25 06:34:27;;;;;;;;;;;;;;;48.01;12.49;94816.81;5040346;28;19920;-77
2022/06/25 06:36:59;;;;;;;;;;;;;;;47.72;12.73;94814.78;5041685;28;19924;-77
2022/06/25 06:39:24;;;;;;;;;;;;;;;48.12;12.61;94810.69;5059213;22;19935;-77
2022/06/25 06:41:50;;;;;;;;;;;;;;;47.32;13.41;94815.25;5084873;22;20527;-77
2022/06/25 06:44:16;;;;;;;;;;;;;;;47.30;13.15;94809.44;5030460;28;19921;-78
2022/06/25 06:46:41;;;;;;;;;;;;;;;47.53;12.88;94816.94;5052957;22;20369;-77
2022/06/25 06:49:06;;;;;;;;;;;;;;;47.15;12.96;94822.41;5021202;28;20007;-77
2022/06/25 06:51:31;;;;;;;;;;;;;;;46.90;13.31;94827.16;5021760;28;19966;-77
2022/06/25 06:53:57;;;;;;;;;;;;;;;46.76;13.55;94822.31;5077813;22;19929;-77
2022/06/25 06:56:22;;;;;;;;;;;;;;;46.91;12.98;94823.16;5030583;28;20299;-78
2022/06/25 06:58:48;;;;;;;;;;;;;;;46.54;13.53;94817.09;5031799;28;19975;-77
2022/06/25 07:01:14;;;;;;;;;;;;;;;46.60;13.73;94822.72;5031272;28;20249;-77
2022/06/25 07:03:39;;;;;;;;;;;;;;;45.96;14.32;94818.16;5013445;28;19939;-77
2022/06/25 07:06:04;;;;;;;;;;;;;;;46.01;13.65;94812.03;5014895;28;19921;-78
2022/06/25 07:08:29;;;;;;;;;;;;;;;45.24;14.56;94807.97;5015045;28;19921;-81
2022/06/25 07:10:55;;;;;;;;;;;;;;;44.19;15.42;94805.09;5015617;28;19944;-77
2022/06/25 07:13:20;;;;;;;;;;;;;;;43.66;15.52;94802.31;5031447;28;19955;-77
2022/06/25 07:15:45;;;;;;;;;;;;;;;42.76;16.43;94803.78;5031293;28;19921;-77
2022/06/25 07:18:11;;;;;;;;;;;;;;;41.82;17.32;94806.25;5030810;28;19965;-85
2022/06/25 07:20:36;;;;;;;;;;;;;;;41.23;18.54;94799.25;5018304;28;19921;-81
2022/06/25 07:23:01;;;;;;;;;;;;;;;40.88;18.95;94809.13;5022314;28;20023;-81
2022/06/25 07:25:27;;;;;;;;;;;;;;;40.55;19.01;94792.00;5017668;28;19917;-81
2022/06/25 07:27:52;;;;;;;;;;;;;;;40.22;20.14;94797.38;5036290;28;19944;-79
2022/06/25 07:30:17;;;;;;;;;;;;;;;39.72;20.11;94798.44;5023021;28;19943;-80
2022/06/25 07:32:43;;;;;;;;;;;;;;;39.13;20.96;94801.09;5021966;28;19944;-79
2022/06/25 07:35:08;;;;;;;;;;;;;;;38.56;21.58;94808.19;5005923;28;19921;-79
2022/06/25 07:37:34;;;;;;;;;;;;;;;38.14;22.89;94810.34;5039070;28;19924;-79
2022/06/25 07:39:59;;;;;;;;;;;;;;;37.83;23.05;94811.53;5038913;28;19917;-79
2022/06/25 07:42:25;;;;;;;;;;;;;;;37.51;23.47;94812.66;5004442;28;19917;-79
2022/06/25 07:44:50;;;;;;;;;;;;;;;37.26;24.18;94809.41;5023689;28;19921;-79
2022/06/25 07:47:15;;;;;;;;;;;;;;;37.07;24.59;94809.97;5022272;28;19917;-79
2022/06/25 07:52:25;;;;;;;;;;;;;;;36.55;25.75;94812.72;5039576;28;19931;-79
2022/06/25 07:54:51;;;;;;;;;;;;;;;36.27;24.85;94808.25;5038090;28;19972;-78
2022/06/25 07:57:16;;;;;;;;;;;;;;;35.96;24.76;94807.25;5022246;28;19917;-79
2022/06/25 07:59:42;;;;;;;;;;;;;;;35.75;25.34;94814.28;5020827;28;19998;-79
2022/06/25 08:02:07;;;;;;;;;;;;;;;35.49;26.00;94803.97;5021461;28;19917;-78
2022/06/25 08:04:32;;;;;;;;;;;;;;;35.33;26.56;94809.78;5022097;28;19921;-78
2022/06/25 08:06:58;;;;;;;;;;;;;;;35.19;26.66;94805.19;5038182;28;19935;-80
2022/06/25 08:09:23;;;;;;;;;;;;;;;35.02;27.47;94807.94;5002364;28;20356;-77
2022/06/25 08:11:48;;;;;;;;;;;;;;;34.84;28.23;94808.69;5038592;28;19994;-79
2022/06/25 08:14:13;;;;;;;;;;;;;;;34.35;27.81;94804.03;5004204;28;19917;-79
2022/06/25 08:16:39;;;;;;;;;;;;;;;34.00;28.60;94810.09;5020738;28;19916;-78
2022/06/25 08:19:04;;;;;;;;;;;;;;;33.72;28.60;94805.38;5039264;28;19917;-78
2022/06/25 08:21:30;;;;;;;;;;;;;;;33.62;29.15;94803.41;5020883;28;19917;-78
2022/06/25 08:23:55;;;;;;;;;;;;;;;33.43;29.30;94794.47;5004508;28;19924;-78
2022/06/25 08:26:20;;;;;;;;;;;;;;;33.28;30.56;94803.59;5021241;28;19951;-78
2022/06/25 08:28:46;;;;;;;;;;;;;;;33.31;31.48;94800.16;5038579;28;19924;-79
2022/06/25 08:31:11;;;;;;;;;;;;;;;33.21;30.21;94798.19;5037540;28;19948;-78
2022/06/25 08:33:37;;;;;;;;;;;;;;;33.03;30.81;94803.47;5001968;28;19932;-79
2022/06/25 08:36:02;;;;;;;;;;;;;;;32.98;29.72;94798.41;5018940;28;20312;-79
2022/06/25 08:38:28;;;;;;;;;;;;;;;32.98;30.91;94803.81;5037600;28;19939;-78
2022/06/25 08:40:56;;;;;;;;;;;;;;;32.87;30.87;94800.28;5034275;28;19992;-79
2022/06/25 08:43:22;;;;;;;;;;;;;;;32.63;30.89;94800.84;5018508;28;19967;-78
2022/06/25 08:45:47;;;;;;;;;;;;;;;32.59;33.22;94810.81;5036503;28;19917;-78
2022/06/25 08:48:16;;;;;;;;;;;;;;;32.54;31.35;94803.81;5018111;28;19921;-79
2022/06/25 08:50:41;;;;;;;;;;;;;;;32.39;31.64;94805.66;5036306;28;19992;-79
2022/06/25 08:53:06;;;;;;;;;;;;;;;31.95;31.23;94810.94;5037415;28;19949;-78
2022/06/25 08:55:32;;;;;;;;;;;;;;;31.51;31.90;94814.25;5037450;28;19917;-79
2022/06/25 08:57:58;;;;;;;;;;;;;;;31.32;32.84;94807.09;5019526;28;19941;-78
2022/06/25 09:00:24;;;;;;;;;;;;;;;31.36;32.73;94802.53;5020910;28;19920;-78
2022/06/25 09:02:49;;;;;;;;;;;;;;;31.47;32.16;94805.38;5019944;28;20384;-79
2022/06/25 09:05:15;;;;;;;;;;;;;;;31.15;33.20;94809.50;5037922;28;19920;-79
2022/06/25 09:07:51;;;;;;;;;;;;;;;30.98;33.68;94808.91;5044049;23;19944;-79
2022/06/25 09:10:19;;;;;;;;;;;;;;;30.60;34.25;94819.81;5064917;28;19926;-78
2022/06/25 09:12:48;;;;;;;;;;;;;;;30.45;34.65;94816.88;5046390;28;19921;-78
2022/06/25 09:15:17;;;;;;;;;;;;;;;30.52;35.62;94815.44;5039246;28;20346;-79
2022/06/25 09:17:47;;;;;;;;;;;;;;;30.67;35.82;94811.88;5070799;28;20377;-79
2022/06/25 09:20:12;;;;;;;;;;;;;;;30.83;35.39;94812.50;5066505;28;19939;-78
2022/06/25 09:22:40;;;;;;;;;;;;;;;30.97;35.69;94817.31;5067558;28;19921;-79
2022/06/25 09:25:11;;;;;;;;;;;;;;;30.99;33.40;94807.75;5067187;28;19920;-81
2022/06/25 09:27:37;;;;;;;;;;;;;;;31.01;34.46;94813.53;5067480;28;20337;-80
2022/06/25 09:30:06;;;;;;;;;;;;;;;31.09;35.40;94811.75;5057775;28;19996;-80
2022/06/25 09:32:41;;;;;;;;;;;;;;;31.18;35.63;94806.13;5091866;22;19927;-80
2022/06/25 09:35:07;;;;;;;;;;;;;;;31.25;35.48;94807.00;5070722;28;19980;-80
2022/06/25 09:37:32;;;;;;;;;;;;;;;31.42;34.94;94805.69;5048698;28;20404;-78
2022/06/25 09:39:58;;;;;;;;;;;;;;;31.56;34.98;94813.91;5060971;28;19975;-75
2022/06/25 09:42:27;;;;;;;;;;;;;;;31.72;34.96;94808.34;5059191;28;19916;-74
2022/06/25 09:45:05;;;;;;;;;;;;;;;31.81;33.47;94810.78;5060261;28;19916;-74
2022/06/25 09:47:30;;;;;;;;;;;;;;;31.89;34.34;94807.03;5042796;28;19967;-73
2022/06/25 09:50:02;;;;;;;;;;;;;;;31.84;34.81;94802.75;5052172;28;19960;-75
2022/06/25 09:52:27;;;;;;;;;;;;;;;31.78;34.13;94800.78;5051532;28;20346;-77
2022/06/25 09:54:53;;;;;;;;;;;;;;;31.87;33.43;94804.69;5043748;28;19916;-77
2022/06/25 09:57:18;;;;;;;;;;;;;;;31.79;33.49;94802.31;5061923;28;19958;-77
2022/06/25 09:59:43;;;;;;;;;;;;;;;31.66;35.30;94791.00;5052047;28;20395;-77
2022/06/25 10:02:09;;;;;;;;;;;;;;;31.60;34.78;94795.16;5059952;28;19951;-76
2022/06/25 10:04:34;;;;;;;;;;;;;;;31.55;33.48;94790.88;5043272;28;20368;-77
2022/06/25 10:07:01;;;;;;;;;;;;;;;31.59;33.35;94783.63;5043364;28;19995;-77
2022/06/25 10:09:26;;;;;;;;;;;;;;;31.57;33.67;94788.59;5061674;28;19951;-79
2022/06/25 10:11:52;;;;;;;;;;;;;;;31.39;33.57;94779.53;5060970;28;19994;-76
2022/06/25 10:14:20;;;;;;;;;;;;;;;31.27;33.93;94783.25;5067353;28;19980;-81
2022/06/25 10:19:21;;;;;;;;;;;;;;;31.13;33.94;94782.25;5562238;22;19924;-79
2022/06/25 10:21:46;;;;;;;;;;;;;;;31.14;35.06;94786.47;5032605;28;19939;-79
2022/06/25 10:24:12;;;;;;;;;;;;;;;31.10;34.21;94772.22;5037589;28;19917;-79
2022/06/25 10:26:37;;;;;;;;;;;;;;;31.12;34.61;94769.94;5015691;28;19920;-77
2022/06/25 10:29:03;;;;;;;;;;;;;;;31.09;34.69;94763.41;4996981;28;19928;-77
2022/06/25 10:31:29;;;;;;;;;;;;;;;31.03;34.83;94757.56;4995702;28;20006;-76
2022/06/25 10:34:02;;;;;;;;;;;;;;;30.99;34.39;94759.44;5031145;28;20380;-77
2022/06/25 10:36:44;;;;;;;;;;;;;;;30.91;34.82;94763.13;5031110;28;19917;-76
2022/06/25 10:39:22;;;;;;;;;;;;;;;30.84;35.06;94763.03;5013465;28;19936;-76
2022/06/25 10:44:50;;;;;;;;;;;;;;;30.84;35.61;94749.63;5031362;28;19943;-77
2022/06/25 10:47:36;;;;;;;;;;;;;;;30.84;36.10;94751.53;5034721;23;19991;-79
2022/06/25 10:50:20;;;;;;;;;;;;;;;30.88;35.30;94760.41;5073913;28;19920;-78
2022/06/25 10:53:04;;;;;;;;;;;;;;;30.81;35.90;94760.31;5080104;28;19951;-77
2022/06/25 10:55:30;;;;;;;;;;;;;;;30.77;35.33;94753.00;5080719;28;19917;-77
2022/06/25 11:01:17;;;;;;;;;;;;;;;30.81;35.84;94747.66;5069915;23;19995;-78
2022/06/25 11:04:46;;;;;;;;;;;;;;;30.67;34.93;94734.81;5162211;22;19973;-78
2022/06/25 11:07:18;;;;;;;;;;;;;;;30.67;36.61;94739.41;5107243;28;19920;-77
2022/06/25 11:10:00;;;;;;;;;;;;;;;30.77;36.07;94728.81;5106392;28;19924;-77
2022/06/25 11:12:29;;;;;;;;;;;;;;;30.84;36.55;94727.38;5107091;28;20339;-77
2022/06/25 11:14:58;;;;;;;;;;;;;;;30.91;35.65;94725.53;5105495;28;20390;-77
2022/06/25 11:17:23;;;;;;;;;;;;;;;31.03;35.04;94719.94;5106476;28;20478;-77
2022/06/25 11:19:49;;;;;;;;;;;;;;;31.14;34.45;94724.69;5106745;28;20011;-78
2022/06/25 11:22:14;;;;;;;;;;;;;;;31.05;35.25;94709.63;5100749;22;20012;-77
2022/06/25 11:28:47;;;;;;;;;;;;;;;31.19;36.15;94713.66;5076181;28;19943;-78
2022/06/25 11:30:11;;;;;;;;;;;;;;;31.28;34.55;94704.19;5061144;28;19937;-77
2022/06/25 11:32:36;;;;;;;;;;;;;;;31.41;35.51;94693.97;5077574;28;19924;-78
2022/06/25 11:35:01;;;;;;;;;;;;;;;31.56;34.49;94695.63;5087675;28;19916;-77
2022/06/25 11:37:27;;;;;;;;;;;;;;;31.85;34.81;94693.28;5061392;28;20369;-78
2022/06/25 11:39:52;;;;;;;;;;;;;;;32.05;33.74;94689.22;5113294;22;19924;-77
2022/06/25 11:42:17;;;;;;;;;;;;;;;32.19;31.69;94691.25;5105245;28;20008;-77
2022/06/25 11:44:44;;;;;;;;;;;;;;;32.15;31.38;94695.84;5107130;28;19923;-77
2022/06/25 11:47:13;;;;;;;;;;;;;;;32.12;32.27;94691.22;5107133;28;19924;-77
2022/06/25 11:49:39;;;;;;;;;;;;;;;32.17;31.77;94693.53;5109154;28;19922;-81
2022/06/25 11:52:05;;;;;;;;;;;;;;;32.20;31.96;94688.19;5090602;28;19920;-77
2022/06/25 11:54:31;;;;;;;;;;;;;;;32.32;31.45;94683.69;5105210;28;19927;-76
2022/06/25 11:56:57;;;;;;;;;;;;;;;32.44;31.68;94686.09;5113567;22;19928;-79
2022/06/25 11:59:26;;;;;;;;;;;;;;;32.52;31.01;94693.06;5109708;28;19981;-78
2022/06/25 12:01:51;;;;;;;;;;;;;;;32.51;30.65;94684.22;5109306;28;19924;-78
2022/06/25 12:04:17;;;;;;;;;;;;;;;32.49;31.75;94683.81;5108890;28;19924;-78
2022/06/25 12:06:42;;;;;;;;;;;;;;;32.44;31.84;94680.72;5081952;28;19924;-82
2022/06/25 12:09:08;;;;;;;;;;;;;;;32.30;30.75;94680.63;5076178;28;20315;-80
2022/06/25 12:11:33;;;;;;;;;;;;;;;32.14;30.95;94681.63;5109926;28;19920;-81
2022/06/25 12:13:58;;;;;;;;;;;;;;;32.00;30.48;94673.44;5090273;28;19924;-80
2022/06/25 12:16:24;;;;;;;;;;;;;;;31.85;31.21;94682.50;5070566;28;20015;-79
2022/06/25 12:18:49;;;;;;;;;;;;;;;31.80;31.75;94677.47;5079534;28;19946;-79
2022/06/25 12:21:18;;;;;;;;;;;;;;;31.77;31.48;94676.31;5090111;28;19920;-82
2022/06/25 12:23:56;;;;;;;;;;;;;;;31.87;31.87;94680.22;5107049;28;19970;-82
2022/06/25 12:26:28;;;;;;;;;;;;;;;31.98;33.47;94681.09;5084952;28;20310;-83
2022/06/25 12:29:04;;;;;;;;;;;;;;;31.95;32.97;94679.16;5096164;28;19920;-82
2022/06/25 12:31:29;;;;;;;;;;;;;;;31.81;33.36;94687.09;5078334;28;20386;-83
2022/06/25 12:33:55;;;;;;;;;;;;;;;31.35;33.63;94677.38;5096347;28;19920;-82
2022/06/25 12:36:20;;;;;;;;;;;;;;;31.05;32.85;94684.66;5096536;28;19924;-82
2022/06/25 12:38:49;;;;;;;;;;;;;;;31.22;32.32;94696.78;5061209;28;19927;-83
2022/06/25 12:41:14;;;;;;;;;;;;;;;30.38;35.77;94712.09;5060782;28;19916;-82
2022/06/25 12:43:44;;;;;;;;;;;;;;;29.71;37.98;94701.00;5097695;28;19924;-85
2022/06/25 12:46:09;;;;;;;;;;;;;;;29.49;37.24;94715.16;5095740;28;19927;-82
2022/06/25 12:48:34;;;;;;;;;;;;;;;29.21;38.05;94708.09;5061239;28;19924;-82
2022/06/25 12:51:06;;;;;;;;;;;;;;;28.88;38.06;94713.91;5078282;28;19928;-82
2022/06/25 12:53:32;;;;;;;;;;;;;;;28.76;38.39;94705.19;5075731;28;19946;-82
2022/06/25 12:55:57;;;;;;;;;;;;;;;28.79;38.39;94709.84;5095860;28;19924;-82
2022/06/25 12:58:22;;;;;;;;;;;;;;;28.81;37.17;94712.97;5062740;28;19927;-81
2022/06/25 13:00:48;;;;;;;;;;;;;;;28.91;36.52;94704.41;5082443;28;19983;-82
2022/06/25 13:03:13;;;;;;;;;;;;;;;28.61;37.35;94710.22;5097145;28;19926;-82
2022/06/25 13:05:42;;;;;;;;;;;;;;;28.99;37.19;94706.88;5061225;28;19924;-82
2022/06/25 13:08:08;;;;;;;;;;;;;;;28.95;37.09;94699.88;5060393;28;19943;-82
2022/06/25 13:10:33;;;;;;;;;;;;;;;28.77;37.81;94707.50;5061039;28;19928;-81
2022/06/25 13:12:59;;;;;;;;;;;;;;;29.03;37.50;94709.63;5078145;28;19995;-81
2022/06/25 13:15:25;;;;;;;;;;;;;;;29.33;36.84;94706.41;5095246;28;19931;-81
2022/06/25 13:17:51;;;;;;;;;;;;;;;29.70;35.49;94698.69;5077347;28;20403;-81